createdAt,value
2023-01-28T00:00:25.253Z,67.51
2023-01-28T00:04:53.357Z,67.61
2023-01-28T00:09:22.861Z,67.74
2023-01-28T00:13:50.662Z,67.58
2023-01-28T00:18:20.535Z,67.51
2023-01-28T00:48:53.415Z,67.00
2023-01-28T00:53:22.570Z,66.80
2023-01-28T00:57:50.772Z,66.96
2023-01-28T01:02:21.449Z,66.84
2023-01-28T01:06:39.591Z,66.67
2023-01-28T01:27:39.081Z,66.97
2023-01-28T01:32:08.429Z,66.81
2023-01-28T01:36:23.929Z,66.79
2023-01-28T02:06:53.164Z,66.27
2023-01-28T02:11:22.341Z,66.49
2023-01-28T02:15:41.196Z,66.38
2023-01-28T02:19:53.308Z,66.31
2023-01-28T02:28:31.351Z,66.15
2023-01-28T02:33:18.828Z,66.29
2023-01-28T02:37:57.121Z,66.20
2023-01-28T02:42:39.636Z,66.31
2023-01-28T03:08:29.578Z,65.70
2023-01-28T03:12:39.744Z,65.68
2023-01-28T03:17:07.080Z,65.86
2023-01-28T03:21:46.458Z,65.95
2023-01-28T03:26:14.053Z,65.65
2023-01-28T03:30:31.611Z,65.57
2023-01-28T03:34:42.257Z,65.97
2023-01-28T03:39:19.016Z,65.75
2023-01-28T05:27:05.585Z,65.44
2023-01-28T05:31:34.554Z,65.54
2023-01-28T05:35:49.803Z,65.60
2023-01-28T05:40:02.228Z,65.44
2023-01-28T05:44:03.988Z,65.45
2023-01-28T05:48:33.218Z,65.60
2023-01-28T06:17:50.035Z,65.59
2023-01-28T06:22:12.151Z,65.71
2023-01-28T06:26:26.626Z,65.88
2023-01-28T06:30:30.030Z,65.63
2023-01-28T06:34:06.432Z,65.68
2023-01-28T06:37:40.102Z,66.02
2023-01-28T06:41:31.592Z,65.77
2023-01-28T06:45:38.689Z,65.90
2023-01-28T06:49:50.682Z,65.55
2023-01-28T06:54:01.893Z,66.02
2023-01-28T06:57:55.093Z,65.76
2023-01-28T07:01:46.624Z,65.98
2023-01-28T07:05:26.644Z,65.88
2023-01-28T07:09:31.124Z,66.06
2023-01-28T07:13:29.868Z,65.89
2023-01-28T07:17:42.622Z,66.06
2023-01-28T07:22:04.054Z,66.33
2023-01-28T07:26:08.575Z,66.27
2023-01-28T07:30:08.070Z,66.27
2023-01-28T07:33:54.099Z,66.21
2023-01-28T08:10:51.704Z,66.45
2023-01-28T08:15:00.787Z,66.51
2023-01-28T08:36:16.765Z,66.51
2023-01-28T08:40:46.243Z,66.34
2023-01-28T08:45:13.003Z,66.43
2023-01-28T08:49:31.767Z,66.67
2023-01-28T08:53:54.377Z,66.29
2023-01-28T08:58:03.414Z,66.53
2023-01-28T09:48:53.938Z,66.38
2023-01-28T09:53:14.699Z,66.55
2023-01-28T09:57:46.936Z,66.50
2023-01-28T10:02:35.390Z,66.42
2023-01-28T10:20:17.737Z,66.28
2023-01-28T10:24:40.138Z,66.20
2023-01-28T10:45:15.826Z,65.62
2023-01-28T10:50:01.207Z,65.46
2023-01-28T10:54:36.107Z,65.43
2023-01-28T10:59:05.583Z,65.24
2023-01-28T11:03:27.675Z,65.07
2023-01-28T11:07:59.642Z,64.84
2023-01-28T11:25:46.577Z,64.71
2023-01-28T11:38:52.030Z,64.92
2023-01-28T11:43:21.380Z,64.82
2023-01-28T11:47:46.360Z,64.47
2023-01-28T12:41:44.743Z,64.23
2023-01-28T12:46:25.921Z,64.37
2023-01-28T12:50:55.613Z,64.25
2023-01-28T12:55:22.877Z,64.41
2023-01-28T12:59:56.507Z,64.30
2023-01-28T13:21:34.643Z,64.28
2023-01-28T13:26:10.194Z,64.36
2023-01-28T13:30:41.198Z,64.48
2023-01-28T13:35:13.413Z,64.12
2023-01-28T13:39:55.537Z,64.32
2023-01-28T14:00:48.078Z,63.64
2023-01-28T14:05:30.233Z,63.57
2023-01-28T14:09:31.895Z,63.51
2023-01-28T14:14:19.206Z,63.39
2023-01-28T14:18:44.040Z,63.01
2023-01-28T14:23:01.344Z,62.73
2023-01-28T14:27:49.960Z,62.78
2023-01-28T15:29:47.497Z,61.06
2023-01-28T15:34:09.790Z,61.34
2023-01-28T15:55:52.616Z,61.25
2023-01-28T16:00:29.487Z,61.21
2023-01-28T16:05:04.995Z,61.19
2023-01-28T16:09:37.018Z,61.34
2023-01-28T16:14:08.687Z,61.21
2023-01-28T16:18:31.964Z,61.35
2023-01-28T16:36:08.390Z,61.33
2023-01-28T16:40:39.121Z,61.41
2023-01-28T17:03:25.613Z,61.81
2023-01-28T17:07:55.255Z,61.92
2023-01-28T17:12:16.560Z,62.14
2023-01-28T17:33:48.570Z,62.64
2023-01-28T17:38:19.219Z,62.73
2023-01-28T17:42:41.056Z,62.79
2023-01-28T17:59:47.199Z,62.78
2023-01-28T18:04:16.474Z,62.94
2023-01-28T18:08:46.283Z,62.81
2023-01-28T18:13:15.663Z,62.87
2023-01-28T18:31:39.801Z,63.22
2023-01-28T18:35:43.703Z,63.24
2023-01-28T18:40:13.201Z,63.33
2023-01-28T18:44:34.236Z,63.17
2023-01-28T19:10:25.701Z,63.29
2023-01-28T19:14:47.053Z,63.53
2023-01-28T19:19:19.156Z,63.53
2023-01-28T19:23:50.161Z,63.69
2023-01-28T19:32:11.918Z,63.57
2023-01-28T19:36:41.548Z,63.95
2023-01-28T19:41:11.549Z,63.82
2023-01-28T19:51:50.009Z,63.84
2023-01-28T19:56:19.542Z,64.01
2023-01-28T20:00:53.277Z,63.82
2023-01-28T20:19:30.768Z,64.45
2023-01-28T20:24:00.320Z,64.07
2023-01-28T20:28:20.912Z,64.41
2023-01-28T20:49:27.163Z,64.98
2023-01-28T20:53:57.814Z,64.99
2023-01-28T20:58:28.103Z,65.19
2023-01-28T21:02:54.881Z,64.90
2023-01-28T21:27:04.651Z,65.59
2023-01-28T21:31:14.749Z,65.33
2023-01-28T21:39:32.343Z,65.46
2023-01-28T21:44:02.140Z,65.47
2023-01-28T21:48:24.550Z,65.57
2023-01-28T22:12:22.749Z,65.65
2023-01-28T22:16:53.261Z,65.81
2023-01-28T22:42:52.760Z,65.79
2023-01-28T22:47:22.251Z,65.66
2023-01-28T22:52:00.262Z,65.72
2023-01-28T22:56:31.747Z,65.41
2023-01-28T23:22:20.617Z,65.75
2023-01-28T23:26:49.935Z,65.77
2023-01-28T23:31:20.550Z,65.67
2023-01-28T23:48:40.682Z,65.92
2023-01-28T23:53:09.854Z,66.14
2023-01-28T23:57:38.974Z,66.23
